This is the latest recevied weather packets stored in our database for station/object KD2FGL-13. If no packets are shown the sender has not sent any weather packets the latest 10 day(s).
| Time | Temp. | Humidity | Pressure | Rain* | Wind** | Luminosity | Snow |
|---|---|---|---|---|---|---|---|
| 1787737053 | 16.67° C | 63% | 1020.3 hPa | 0 mm | - | - | - |
| 1787735535 | 16.67° C | 62% | 1020.1 hPa | 0 mm | - | - | - |
| 1787735234 | 16.67° C | 62% | 1020.1 hPa | 0 mm | - | - | - |
| 1787734317 | 17.22° C | 62% | 1020.1 hPa | 0 mm | - | - | - |
| 1787730975 | 17.78° C | 61% | 1020.2 hPa | 0 mm | - | - | - |
| 1787730366 | 17.78° C | 60% | 1020 hPa | 0 mm | - | - | - |
| 1787729759 | 17.78° C | 60% | 1019.9 hPa | 0 mm | - | - | - |
| 1787729454 | 17.78° C | 60% | 1019.9 hPa | 0 mm | - | - | - |
| 1787728847 | 18.33° C | 60% | 1019.8 hPa | 0 mm | - | - | - |
| 1787727935 | 18.33° C | 60% | 1019.7 hPa | 0 mm | - | - | - |
| 1787727327 | 18.33° C | 60% | 1019.7 hPa | 0 mm | - | - | - |
| 1787727023 | 18.33° C | 60% | 1019.7 hPa | 0 mm | - | - | - |
| 1787724896 | 18.33° C | 60% | 1019.6 hPa | 0 mm | - | - | - |
| 1787724288 | 18.89° C | 58% | 1019.6 hPa | 0 mm | - | - | - |
| 1787723680 | 18.89° C | 58% | 1019.7 hPa | 0 mm | - | - | - |
| 1787722769 | 19.44° C | 57% | 1019.8 hPa | 0 mm | - | - | - |
| 1787721857 | 19.44° C | 57% | 1019.8 hPa | 0 mm | - | - | - |
| 1787720641 | 19.44° C | 56% | 1019.6 hPa | 0 mm | - | - | - |
| 1787720033 | 20° C | 56% | 1019.6 hPa | 0 mm | - | - | - |
| 1787718210 | 20.56° C | 55% | 1019.4 hPa | 0 mm | - | - | - |
| 1787696934 | 27.22° C | 38% | 1016.8 hPa | 0 mm | - | - | - |
| 1787696326 | 27.22° C | 38% | 1016.8 hPa | 0 mm | - | - | - |
| 1787693590 | 27.22° C | 38% | 1016.5 hPa | 0 mm | - | - | - |
| 1787693287 | 27.22° C | 37% | 1016.5 hPa | 0 mm | - | - | - |
| 1787691159 | 27.22° C | 38% | 1016.2 hPa | 0 mm | - | - | - |
* Rain since midnight (hover to see other rain measurements)
** Current wind speed in m/s (hover to see current wind gust speed)